sensor_id;sensor_type;location;lat;lon;timestamp;P1;durP1;ratioP1;P2;durP2;ratioP2
7573;SDS011;3828;48.922;9.116;2022-09-09T00:00:53;3.63;;;2.03;;
7573;SDS011;3828;48.922;9.116;2022-09-09T00:03:22;3.57;;;2.13;;
7573;SDS011;3828;48.922;9.116;2022-09-09T00:05:54;2.40;;;2.17;;
7573;SDS011;3828;48.922;9.116;2022-09-09T00:08:28;2.53;;;1.97;;
7573;SDS011;3828;48.922;9.116;2022-09-09T00:11:02;2.70;;;1.93;;
7573;SDS011;3828;48.922;9.116;2022-09-09T00:13:32;3.73;;;2.07;;
7573;SDS011;3828;48.922;9.116;2022-09-09T00:16:08;3.03;;;2.10;;
7573;SDS011;3828;48.922;9.116;2022-09-09T00:18:46;2.10;;;1.87;;
7573;SDS011;3828;48.922;9.116;2022-09-09T00:21:22;5.07;;;1.63;;
7573;SDS011;3828;48.922;9.116;2022-09-09T00:23:56;1.73;;;1.50;;
7573;SDS011;3828;48.922;9.116;2022-09-09T00:26:26;3.83;;;1.70;;
7573;SDS011;3828;48.922;9.116;2022-09-09T00:29:03;1.70;;;1.60;;
7573;SDS011;3828;48.922;9.116;2022-09-09T00:31:50;4.53;;;1.70;;
7573;SDS011;3828;48.922;9.116;2022-09-09T00:34:29;3.03;;;1.50;;
7573;SDS011;3828;48.922;9.116;2022-09-09T00:37:00;6.50;;;1.90;;
7573;SDS011;3828;48.922;9.116;2022-09-09T00:39:31;2.43;;;1.60;;
7573;SDS011;3828;48.922;9.116;2022-09-09T00:42:04;2.43;;;2.00;;
7573;SDS011;3828;48.922;9.116;2022-09-09T00:44:43;3.03;;;1.50;;
7573;SDS011;3828;48.922;9.116;2022-09-09T00:47:24;2.33;;;1.50;;
7573;SDS011;3828;48.922;9.116;2022-09-09T00:50:08;5.53;;;1.50;;
7573;SDS011;3828;48.922;9.116;2022-09-09T00:52:47;3.27;;;1.60;;
7573;SDS011;3828;48.922;9.116;2022-09-09T00:55:21;2.27;;;1.50;;
7573;SDS011;3828;48.922;9.116;2022-09-09T00:58:00;1.80;;;1.23;;
7573;SDS011;3828;48.922;9.116;2022-09-09T01:00:47;3.70;;;1.60;;
7573;SDS011;3828;48.922;9.116;2022-09-09T01:03:20;1.43;;;1.33;;
7573;SDS011;3828;48.922;9.116;2022-09-09T01:05:54;3.53;;;1.70;;
7573;SDS011;3828;48.922;9.116;2022-09-09T01:08:42;4.17;;;1.57;;
7573;SDS011;3828;48.922;9.116;2022-09-09T01:11:32;1.77;;;1.33;;
7573;SDS011;3828;48.922;9.116;2022-09-09T01:14:11;1.53;;;1.30;;
7573;SDS011;3828;48.922;9.116;2022-09-09T01:16:47;4.67;;;1.40;;
7573;SDS011;3828;48.922;9.116;2022-09-09T01:19:18;2.40;;;1.17;;
7573;SDS011;3828;48.922;9.116;2022-09-09T01:21:56;4.57;;;1.40;;
7573;SDS011;3828;48.922;9.116;2022-09-09T01:24:35;3.93;;;1.57;;
7573;SDS011;3828;48.922;9.116;2022-09-09T01:27:11;1.57;;;1.47;;
7573;SDS011;3828;48.922;9.116;2022-09-09T01:29:42;2.70;;;1.63;;
7573;SDS011;3828;48.922;9.116;2022-09-09T01:35:22;1.57;;;1.20;;
7573;SDS011;3828;48.922;9.116;2022-09-09T01:38:07;2.00;;;1.53;;
7573;SDS011;3828;48.922;9.116;2022-09-09T01:40:34;1.97;;;1.80;;
7573;SDS011;3828;48.922;9.116;2022-09-09T01:43:03;2.83;;;1.20;;
7573;SDS011;3828;48.922;9.116;2022-09-09T01:45:31;5.93;;;1.47;;
7573;SDS011;3828;48.922;9.116;2022-09-09T01:48:02;3.27;;;1.20;;
7573;SDS011;3828;48.922;9.116;2022-09-09T01:50:29;4.17;;;1.60;;
7573;SDS011;3828;48.922;9.116;2022-09-09T01:52:57;2.20;;;1.43;;
7573;SDS011;3828;48.922;9.116;2022-09-09T01:55:28;1.37;;;1.13;;
7573;SDS011;3828;48.922;9.116;2022-09-09T01:58:00;1.57;;;1.47;;
7573;SDS011;3828;48.922;9.116;2022-09-09T02:00:43;1.23;;;1.17;;
7573;SDS011;3828;48.922;9.116;2022-09-09T02:03:15;3.00;;;1.30;;
7573;SDS011;3828;48.922;9.116;2022-09-09T02:05:53;3.03;;;1.30;;
7573;SDS011;3828;48.922;9.116;2022-09-09T02:08:26;2.00;;;1.57;;
7573;SDS011;3828;48.922;9.116;2022-09-09T02:11:04;2.00;;;1.20;;
7573;SDS011;3828;48.922;9.116;2022-09-09T02:13:38;2.97;;;1.67;;
7573;SDS011;3828;48.922;9.116;2022-09-09T02:16:07;5.30;;;1.43;;
7573;SDS011;3828;48.922;9.116;2022-09-09T02:18:38;3.37;;;1.10;;
7573;SDS011;3828;48.922;9.116;2022-09-09T02:21:11;1.77;;;1.20;;
7573;SDS011;3828;48.922;9.116;2022-09-09T02:23:39;1.50;;;1.30;;
7573;SDS011;3828;48.922;9.116;2022-09-09T02:26:08;1.87;;;1.33;;
7573;SDS011;3828;48.922;9.116;2022-09-09T02:28:46;1.20;;;1.13;;
7573;SDS011;3828;48.922;9.116;2022-09-09T02:31:14;2.30;;;1.30;;
7573;SDS011;3828;48.922;9.116;2022-09-09T02:33:46;1.53;;;1.33;;
7573;SDS011;3828;48.922;9.116;2022-09-09T02:36:17;1.97;;;1.30;;
7573;SDS011;3828;48.922;9.116;2022-09-09T02:38:47;2.23;;;1.40;;
7573;SDS011;3828;48.922;9.116;2022-09-09T02:41:19;2.70;;;1.10;;
7573;SDS011;3828;48.922;9.116;2022-09-09T02:43:49;3.03;;;1.33;;
7573;SDS011;3828;48.922;9.116;2022-09-09T02:46:21;2.17;;;1.40;;
7573;SDS011;3828;48.922;9.116;2022-09-09T02:48:59;1.37;;;1.17;;
7573;SDS011;3828;48.922;9.116;2022-09-09T02:51:30;3.13;;;1.23;;
7573;SDS011;3828;48.922;9.116;2022-09-09T02:54:04;2.20;;;1.17;;
7573;SDS011;3828;48.922;9.116;2022-09-09T02:56:39;1.53;;;1.40;;
7573;SDS011;3828;48.922;9.116;2022-09-09T02:59:13;2.13;;;1.30;;
7573;SDS011;3828;48.922;9.116;2022-09-09T03:01:40;1.17;;;1.07;;
7573;SDS011;3828;48.922;9.116;2022-09-09T03:04:06;4.57;;;1.37;;
7573;SDS011;3828;48.922;9.116;2022-09-09T03:06:34;2.50;;;1.50;;
7573;SDS011;3828;48.922;9.116;2022-09-09T03:09:01;3.60;;;1.30;;
7573;SDS011;3828;48.922;9.116;2022-09-09T03:11:28;3.33;;;1.27;;
7573;SDS011;3828;48.922;9.116;2022-09-09T03:13:56;1.87;;;1.37;;
7573;SDS011;3828;48.922;9.116;2022-09-09T03:16:24;1.90;;;1.37;;
7573;SDS011;3828;48.922;9.116;2022-09-09T03:18:51;2.07;;;1.50;;
7573;SDS011;3828;48.922;9.116;2022-09-09T03:21:18;1.57;;;1.20;;
7573;SDS011;3828;48.922;9.116;2022-09-09T03:23:47;6.50;;;1.70;;
7573;SDS011;3828;48.922;9.116;2022-09-09T03:26:13;1.60;;;1.43;;
7573;SDS011;3828;48.922;9.116;2022-09-09T03:28:41;2.00;;;1.60;;
7573;SDS011;3828;48.922;9.116;2022-09-09T03:31:08;1.67;;;1.30;;
7573;SDS011;3828;48.922;9.116;2022-09-09T03:33:37;2.83;;;1.30;;
7573;SDS011;3828;48.922;9.116;2022-09-09T03:36:07;2.00;;;1.53;;
7573;SDS011;3828;48.922;9.116;2022-09-09T03:38:35;4.13;;;1.77;;
7573;SDS011;3828;48.922;9.116;2022-09-09T03:41:02;3.03;;;1.57;;
7573;SDS011;3828;48.922;9.116;2022-09-09T03:43:32;2.03;;;1.20;;
7573;SDS011;3828;48.922;9.116;2022-09-09T03:45:59;1.60;;;1.50;;
7573;SDS011;3828;48.922;9.116;2022-09-09T03:48:26;3.90;;;1.50;;
7573;SDS011;3828;48.922;9.116;2022-09-09T03:50:55;1.33;;;1.23;;
7573;SDS011;3828;48.922;9.116;2022-09-09T03:53:25;1.43;;;1.33;;
7573;SDS011;3828;48.922;9.116;2022-09-09T03:55:54;1.90;;;1.23;;
7573;SDS011;3828;48.922;9.116;2022-09-09T03:58:25;1.97;;;1.37;;
7573;SDS011;3828;48.922;9.116;2022-09-09T04:00:53;2.90;;;1.30;;
7573;SDS011;3828;48.922;9.116;2022-09-09T04:03:20;2.93;;;1.00;;
7573;SDS011;3828;48.922;9.116;2022-09-09T04:05:49;1.43;;;1.20;;
7573;SDS011;3828;48.922;9.116;2022-09-09T04:08:18;1.50;;;1.40;;
7573;SDS011;3828;48.922;9.116;2022-09-09T04:10:45;2.47;;;1.10;;
7573;SDS011;3828;48.922;9.116;2022-09-09T04:13:12;2.03;;;1.40;;
7573;SDS011;3828;48.922;9.116;2022-09-09T04:15:41;1.23;;;0.90;;
7573;SDS011;3828;48.922;9.116;2022-09-09T04:18:08;2.93;;;1.50;;
7573;SDS011;3828;48.922;9.116;2022-09-09T04:20:42;1.20;;;1.10;;
7573;SDS011;3828;48.922;9.116;2022-09-09T04:23:11;3.83;;;1.70;;
7573;SDS011;3828;48.922;9.116;2022-09-09T04:25:43;1.17;;;1.07;;
7573;SDS011;3828;48.922;9.116;2022-09-09T04:28:12;1.60;;;1.10;;
7573;SDS011;3828;48.922;9.116;2022-09-09T04:30:39;1.53;;;1.20;;
7573;SDS011;3828;48.922;9.116;2022-09-09T04:33:07;0.97;;;0.93;;
7573;SDS011;3828;48.922;9.116;2022-09-09T04:35:34;1.17;;;1.00;;
7573;SDS011;3828;48.922;9.116;2022-09-09T04:38:01;1.40;;;1.30;;
7573;SDS011;3828;48.922;9.116;2022-09-09T04:40:28;3.30;;;1.17;;
7573;SDS011;3828;48.922;9.116;2022-09-09T04:42:58;1.53;;;1.03;;
7573;SDS011;3828;48.922;9.116;2022-09-09T04:45:26;1.33;;;1.20;;
7573;SDS011;3828;48.922;9.116;2022-09-09T04:47:53;3.20;;;1.67;;
7573;SDS011;3828;48.922;9.116;2022-09-09T04:50:20;1.83;;;1.23;;
7573;SDS011;3828;48.922;9.116;2022-09-09T04:52:48;1.43;;;1.30;;
7573;SDS011;3828;48.922;9.116;2022-09-09T04:55:33;1.30;;;1.10;;
7573;SDS011;3828;48.922;9.116;2022-09-09T04:58:17;2.07;;;1.03;;
7573;SDS011;3828;48.922;9.116;2022-09-09T05:03:55;3.97;;;1.10;;
7573;SDS011;3828;48.922;9.116;2022-09-09T05:06:26;2.90;;;2.03;;
7573;SDS011;3828;48.922;9.116;2022-09-09T05:09:08;1.93;;;1.10;;
7573;SDS011;3828;48.922;9.116;2022-09-09T05:11:51;1.80;;;1.27;;
7573;SDS011;3828;48.922;9.116;2022-09-09T05:14:19;2.30;;;1.10;;
7573;SDS011;3828;48.922;9.116;2022-09-09T05:16:52;1.37;;;1.07;;
7573;SDS011;3828;48.922;9.116;2022-09-09T05:19:34;3.00;;;1.70;;
7573;SDS011;3828;48.922;9.116;2022-09-09T05:22:01;1.83;;;1.47;;
7573;SDS011;3828;48.922;9.116;2022-09-09T05:24:28;2.07;;;1.60;;
7573;SDS011;3828;48.922;9.116;2022-09-09T05:26:58;3.53;;;2.50;;
7573;SDS011;3828;48.922;9.116;2022-09-09T05:29:27;1.70;;;1.60;;
7573;SDS011;3828;48.922;9.116;2022-09-09T05:31:54;2.57;;;1.30;;
7573;SDS011;3828;48.922;9.116;2022-09-09T05:34:21;3.23;;;1.57;;
7573;SDS011;3828;48.922;9.116;2022-09-09T05:36:48;3.60;;;1.40;;
7573;SDS011;3828;48.922;9.116;2022-09-09T05:39:20;1.80;;;1.50;;
7573;SDS011;3828;48.922;9.116;2022-09-09T05:41:54;1.43;;;1.30;;
7573;SDS011;3828;48.922;9.116;2022-09-09T05:44:20;3.87;;;1.50;;
7573;SDS011;3828;48.922;9.116;2022-09-09T05:46:49;1.30;;;1.17;;
7573;SDS011;3828;48.922;9.116;2022-09-09T05:49:16;2.73;;;1.40;;
7573;SDS011;3828;48.922;9.116;2022-09-09T05:51:43;2.67;;;1.20;;
7573;SDS011;3828;48.922;9.116;2022-09-09T05:54:09;3.00;;;1.40;;
7573;SDS011;3828;48.922;9.116;2022-09-09T05:56:38;4.40;;;1.63;;
7573;SDS011;3828;48.922;9.116;2022-09-09T05:59:05;4.10;;;1.40;;
7573;SDS011;3828;48.922;9.116;2022-09-09T06:01:32;2.50;;;1.33;;
7573;SDS011;3828;48.922;9.116;2022-09-09T06:04:02;1.63;;;1.53;;
7573;SDS011;3828;48.922;9.116;2022-09-09T06:06:30;1.90;;;1.27;;
7573;SDS011;3828;48.922;9.116;2022-09-09T06:09:03;3.27;;;1.63;;
7573;SDS011;3828;48.922;9.116;2022-09-09T06:11:34;2.77;;;1.60;;
7573;SDS011;3828;48.922;9.116;2022-09-09T06:14:01;1.53;;;1.40;;
7573;SDS011;3828;48.922;9.116;2022-09-09T06:16:29;2.53;;;1.20;;
7573;SDS011;3828;48.922;9.116;2022-09-09T06:18:57;4.93;;;1.50;;
7573;SDS011;3828;48.922;9.116;2022-09-09T06:21:26;3.80;;;1.17;;
7573;SDS011;3828;48.922;9.116;2022-09-09T06:23:55;1.70;;;1.60;;
7573;SDS011;3828;48.922;9.116;2022-09-09T06:26:23;1.67;;;1.10;;
7573;SDS011;3828;48.922;9.116;2022-09-09T06:28:52;3.07;;;1.50;;
7573;SDS011;3828;48.922;9.116;2022-09-09T06:31:20;3.23;;;1.40;;
7573;SDS011;3828;48.922;9.116;2022-09-09T06:33:48;7.73;;;1.53;;
7573;SDS011;3828;48.922;9.116;2022-09-09T06:36:16;2.90;;;1.27;;
7573;SDS011;3828;48.922;9.116;2022-09-09T06:38:46;3.60;;;1.37;;
7573;SDS011;3828;48.922;9.116;2022-09-09T06:41:14;2.33;;;1.20;;
7573;SDS011;3828;48.922;9.116;2022-09-09T06:43:43;5.93;;;1.60;;
7573;SDS011;3828;48.922;9.116;2022-09-09T06:46:14;1.90;;;1.23;;
7573;SDS011;3828;48.922;9.116;2022-09-09T06:48:53;3.27;;;1.70;;
7573;SDS011;3828;48.922;9.116;2022-09-09T06:51:23;1.90;;;1.30;;
7573;SDS011;3828;48.922;9.116;2022-09-09T06:56:47;1.80;;;1.10;;
7573;SDS011;3828;48.922;9.116;2022-09-09T06:59:15;6.80;;;1.43;;
7573;SDS011;3828;48.922;9.116;2022-09-09T07:01:42;1.60;;;1.03;;
7573;SDS011;3828;48.922;9.116;2022-09-09T07:04:09;1.90;;;1.50;;
7573;SDS011;3828;48.922;9.116;2022-09-09T07:06:38;1.70;;;1.20;;
7573;SDS011;3828;48.922;9.116;2022-09-09T07:09:06;4.77;;;1.37;;
7573;SDS011;3828;48.922;9.116;2022-09-09T07:11:38;5.87;;;1.37;;
7573;SDS011;3828;48.922;9.116;2022-09-09T07:14:06;4.53;;;1.80;;
7573;SDS011;3828;48.922;9.116;2022-09-09T07:16:34;7.63;;;1.47;;
7573;SDS011;3828;48.922;9.116;2022-09-09T07:19:02;3.83;;;1.30;;
7573;SDS011;3828;48.922;9.116;2022-09-09T07:21:29;2.67;;;1.30;;
7573;SDS011;3828;48.922;9.116;2022-09-09T07:23:57;3.67;;;1.23;;
7573;SDS011;3828;48.922;9.116;2022-09-09T07:26:26;1.80;;;1.07;;
7573;SDS011;3828;48.922;9.116;2022-09-09T07:29:05;1.97;;;1.37;;
7573;SDS011;3828;48.922;9.116;2022-09-09T07:31:32;2.23;;;1.27;;
7573;SDS011;3828;48.922;9.116;2022-09-09T07:34:01;2.13;;;1.10;;
7573;SDS011;3828;48.922;9.116;2022-09-09T07:36:29;4.90;;;2.00;;
7573;SDS011;3828;48.922;9.116;2022-09-09T07:38:58;2.57;;;1.33;;
7573;SDS011;3828;48.922;9.116;2022-09-09T07:41:27;2.80;;;1.30;;
7573;SDS011;3828;48.922;9.116;2022-09-09T07:43:57;2.30;;;1.07;;
7573;SDS011;3828;48.922;9.116;2022-09-09T07:46:25;1.77;;;1.10;;
7573;SDS011;3828;48.922;9.116;2022-09-09T07:48:53;1.63;;;1.20;;
7573;SDS011;3828;48.922;9.116;2022-09-09T07:51:22;1.10;;;1.00;;
7573;SDS011;3828;48.922;9.116;2022-09-09T07:53:51;3.03;;;1.70;;
7573;SDS011;3828;48.922;9.116;2022-09-09T07:56:22;3.80;;;1.50;;
7573;SDS011;3828;48.922;9.116;2022-09-09T07:58:51;1.23;;;1.13;;
7573;SDS011;3828;48.922;9.116;2022-09-09T08:01:20;1.47;;;1.00;;
7573;SDS011;3828;48.922;9.116;2022-09-09T08:03:54;2.03;;;1.20;;
7573;SDS011;3828;48.922;9.116;2022-09-09T08:06:24;1.80;;;0.93;;
7573;SDS011;3828;48.922;9.116;2022-09-09T08:08:52;2.27;;;1.53;;
7573;SDS011;3828;48.922;9.116;2022-09-09T08:11:21;1.30;;;1.00;;
7573;SDS011;3828;48.922;9.116;2022-09-09T08:13:50;1.77;;;1.07;;
7573;SDS011;3828;48.922;9.116;2022-09-09T08:16:18;2.70;;;1.13;;
7573;SDS011;3828;48.922;9.116;2022-09-09T08:18:47;3.57;;;1.50;;
7573;SDS011;3828;48.922;9.116;2022-09-09T08:21:17;3.30;;;0.90;;
7573;SDS011;3828;48.922;9.116;2022-09-09T08:23:46;3.13;;;1.53;;
7573;SDS011;3828;48.922;9.116;2022-09-09T08:26:14;1.80;;;1.00;;
7573;SDS011;3828;48.922;9.116;2022-09-09T08:28:42;2.53;;;1.53;;
7573;SDS011;3828;48.922;9.116;2022-09-09T08:31:11;2.43;;;1.00;;
7573;SDS011;3828;48.922;9.116;2022-09-09T08:33:39;3.13;;;1.10;;
7573;SDS011;3828;48.922;9.116;2022-09-09T08:36:07;2.03;;;1.00;;
7573;SDS011;3828;48.922;9.116;2022-09-09T08:38:38;1.90;;;1.00;;
7573;SDS011;3828;48.922;9.116;2022-09-09T08:44:07;2.90;;;1.00;;
7573;SDS011;3828;48.922;9.116;2022-09-09T08:46:43;2.23;;;1.20;;
7573;SDS011;3828;48.922;9.116;2022-09-09T08:49:29;1.47;;;0.93;;
7573;SDS011;3828;48.922;9.116;2022-09-09T08:52:06;3.57;;;1.30;;
7573;SDS011;3828;48.922;9.116;2022-09-09T08:54:42;6.03;;;1.27;;
7573;SDS011;3828;48.922;9.116;2022-09-09T08:57:09;1.83;;;0.83;;
7573;SDS011;3828;48.922;9.116;2022-09-09T08:59:40;2.63;;;0.90;;
7573;SDS011;3828;48.922;9.116;2022-09-09T09:02:08;2.57;;;1.00;;
7573;SDS011;3828;48.922;9.116;2022-09-09T09:04:49;2.13;;;1.20;;
7573;SDS011;3828;48.922;9.116;2022-09-09T09:07:30;4.23;;;1.57;;
7573;SDS011;3828;48.922;9.116;2022-09-09T09:10:05;1.20;;;1.10;;
7573;SDS011;3828;48.922;9.116;2022-09-09T09:12:39;2.90;;;1.00;;
7573;SDS011;3828;48.922;9.116;2022-09-09T09:15:10;1.03;;;0.90;;
7573;SDS011;3828;48.922;9.116;2022-09-09T09:17:42;1.47;;;1.00;;
7573;SDS011;3828;48.922;9.116;2022-09-09T09:20:11;1.43;;;0.93;;
7573;SDS011;3828;48.922;9.116;2022-09-09T09:22:42;1.17;;;0.90;;
7573;SDS011;3828;48.922;9.116;2022-09-09T09:25:15;1.60;;;0.83;;
7573;SDS011;3828;48.922;9.116;2022-09-09T09:27:46;3.27;;;1.03;;
7573;SDS011;3828;48.922;9.116;2022-09-09T09:30:22;1.97;;;1.27;;
7573;SDS011;3828;48.922;9.116;2022-09-09T09:32:52;1.03;;;0.80;;
7573;SDS011;3828;48.922;9.116;2022-09-09T09:35:21;2.77;;;1.00;;
7573;SDS011;3828;48.922;9.116;2022-09-09T09:37:50;2.00;;;0.83;;
7573;SDS011;3828;48.922;9.116;2022-09-09T09:40:20;2.47;;;1.20;;
7573;SDS011;3828;48.922;9.116;2022-09-09T09:42:49;3.40;;;0.90;;
7573;SDS011;3828;48.922;9.116;2022-09-09T09:45:20;5.73;;;1.60;;
7573;SDS011;3828;48.922;9.116;2022-09-09T09:48:00;1.20;;;1.10;;
7573;SDS011;3828;48.922;9.116;2022-09-09T09:50:29;1.60;;;1.47;;
7573;SDS011;3828;48.922;9.116;2022-09-09T09:52:57;3.50;;;1.10;;
7573;SDS011;3828;48.922;9.116;2022-09-09T09:55:27;2.57;;;1.00;;
7573;SDS011;3828;48.922;9.116;2022-09-09T09:58:00;1.90;;;0.83;;
7573;SDS011;3828;48.922;9.116;2022-09-09T10:00:28;3.17;;;1.20;;
7573;SDS011;3828;48.922;9.116;2022-09-09T10:02:55;3.23;;;1.47;;
7573;SDS011;3828;48.922;9.116;2022-09-09T10:05:22;2.17;;;1.43;;
7573;SDS011;3828;48.922;9.116;2022-09-09T10:08:04;4.13;;;3.00;;
7573;SDS011;3828;48.922;9.116;2022-09-09T10:13:44;2.73;;;1.20;;
7573;SDS011;3828;48.922;9.116;2022-09-09T10:16:19;2.53;;;0.90;;
7573;SDS011;3828;48.922;9.116;2022-09-09T10:18:59;3.03;;;0.93;;
7573;SDS011;3828;48.922;9.116;2022-09-09T10:21:32;3.40;;;0.80;;
7573;SDS011;3828;48.922;9.116;2022-09-09T10:24:39;1.10;;;0.60;;
7573;SDS011;3828;48.922;9.116;2022-09-09T10:27:18;1.43;;;0.83;;
7573;SDS011;3828;48.922;9.116;2022-09-09T10:29:58;1.53;;;0.60;;
7573;SDS011;3828;48.922;9.116;2022-09-09T10:32:36;1.53;;;0.70;;
7573;SDS011;3828;48.922;9.116;2022-09-09T10:35:09;1.17;;;0.77;;
7573;SDS011;3828;48.922;9.116;2022-09-09T10:37:44;0.80;;;0.60;;
7573;SDS011;3828;48.922;9.116;2022-09-09T10:40:44;1.00;;;0.90;;
7573;SDS011;3828;48.922;9.116;2022-09-09T10:43:23;3.30;;;1.30;;
7573;SDS011;3828;48.922;9.116;2022-09-09T10:46:06;2.40;;;1.03;;
7573;SDS011;3828;48.922;9.116;2022-09-09T10:48:42;2.67;;;0.90;;
7573;SDS011;3828;48.922;9.116;2022-09-09T10:51:23;3.87;;;1.03;;
7573;SDS011;3828;48.922;9.116;2022-09-09T10:54:15;1.57;;;0.90;;
7573;SDS011;3828;48.922;9.116;2022-09-09T10:56:58;1.50;;;0.97;;
7573;SDS011;3828;48.922;9.116;2022-09-09T10:59:32;4.03;;;1.10;;
7573;SDS011;3828;48.922;9.116;2022-09-09T11:02:03;2.67;;;1.17;;
7573;SDS011;3828;48.922;9.116;2022-09-09T11:04:39;2.50;;;1.10;;
7573;SDS011;3828;48.922;9.116;2022-09-09T11:07:11;3.87;;;1.50;;
7573;SDS011;3828;48.922;9.116;2022-09-09T11:09:42;1.83;;;1.10;;
7573;SDS011;3828;48.922;9.116;2022-09-09T11:12:17;2.23;;;1.23;;
7573;SDS011;3828;48.922;9.116;2022-09-09T11:14:47;1.60;;;1.00;;
7573;SDS011;3828;48.922;9.116;2022-09-09T11:17:20;3.77;;;1.23;;
7573;SDS011;3828;48.922;9.116;2022-09-09T11:19:50;1.33;;;0.80;;
7573;SDS011;3828;48.922;9.116;2022-09-09T11:22:19;1.37;;;0.93;;
7573;SDS011;3828;48.922;9.116;2022-09-09T11:24:52;4.63;;;1.00;;
7573;SDS011;3828;48.922;9.116;2022-09-09T11:27:23;1.13;;;0.90;;
7573;SDS011;3828;48.922;9.116;2022-09-09T11:32:56;2.50;;;1.07;;
7573;SDS011;3828;48.922;9.116;2022-09-09T11:36:00;3.13;;;0.90;;
7573;SDS011;3828;48.922;9.116;2022-09-09T11:38:50;1.53;;;0.90;;
7573;SDS011;3828;48.922;9.116;2022-09-09T11:41:18;3.27;;;0.80;;
7573;SDS011;3828;48.922;9.116;2022-09-09T11:43:47;1.07;;;0.70;;
7573;SDS011;3828;48.922;9.116;2022-09-09T11:46:17;0.87;;;0.80;;
7573;SDS011;3828;48.922;9.116;2022-09-09T11:48:57;1.70;;;1.07;;
7573;SDS011;3828;48.922;9.116;2022-09-09T11:51:25;1.53;;;1.00;;
7573;SDS011;3828;48.922;9.116;2022-09-09T11:53:55;1.27;;;1.00;;
7573;SDS011;3828;48.922;9.116;2022-09-09T11:56:24;0.70;;;0.70;;
7573;SDS011;3828;48.922;9.116;2022-09-09T11:58:54;0.93;;;0.80;;
7573;SDS011;3828;48.922;9.116;2022-09-09T12:01:38;1.30;;;0.70;;
7573;SDS011;3828;48.922;9.116;2022-09-09T12:04:12;0.67;;;0.67;;
7573;SDS011;3828;48.922;9.116;2022-09-09T12:06:42;0.73;;;0.73;;
7573;SDS011;3828;48.922;9.116;2022-09-09T12:09:22;1.60;;;0.60;;
7573;SDS011;3828;48.922;9.116;2022-09-09T12:12:04;0.73;;;0.73;;
7573;SDS011;3828;48.922;9.116;2022-09-09T12:14:35;0.73;;;0.57;;
7573;SDS011;3828;48.922;9.116;2022-09-09T12:17:10;2.17;;;0.70;;
7573;SDS011;3828;48.922;9.116;2022-09-09T12:19:45;1.33;;;0.50;;
7573;SDS011;3828;48.922;9.116;2022-09-09T12:22:15;1.30;;;0.47;;
7573;SDS011;3828;48.922;9.116;2022-09-09T12:24:52;1.70;;;0.53;;
7573;SDS011;3828;48.922;9.116;2022-09-09T12:27:27;1.97;;;0.67;;
7573;SDS011;3828;48.922;9.116;2022-09-09T12:30:02;0.63;;;0.63;;
7573;SDS011;3828;48.922;9.116;2022-09-09T12:32:32;0.60;;;0.50;;
7573;SDS011;3828;48.922;9.116;2022-09-09T12:35:00;0.57;;;0.50;;
7573;SDS011;3828;48.922;9.116;2022-09-09T12:37:31;0.60;;;0.50;;
7573;SDS011;3828;48.922;9.116;2022-09-09T12:40:00;1.00;;;0.87;;
7573;SDS011;3828;48.922;9.116;2022-09-09T12:42:29;1.13;;;0.47;;
7573;SDS011;3828;48.922;9.116;2022-09-09T12:44:59;1.03;;;0.60;;
7573;SDS011;3828;48.922;9.116;2022-09-09T12:47:30;2.20;;;0.50;;
7573;SDS011;3828;48.922;9.116;2022-09-09T12:50:14;2.13;;;0.60;;
7573;SDS011;3828;48.922;9.116;2022-09-09T12:52:43;1.70;;;0.63;;
7573;SDS011;3828;48.922;9.116;2022-09-09T12:55:16;1.97;;;0.63;;
7573;SDS011;3828;48.922;9.116;2022-09-09T12:57:45;0.97;;;0.50;;
7573;SDS011;3828;48.922;9.116;2022-09-09T13:00:15;1.57;;;1.10;;
7573;SDS011;3828;48.922;9.116;2022-09-09T13:02:59;1.07;;;0.60;;
7573;SDS011;3828;48.922;9.116;2022-09-09T13:05:31;1.53;;;0.50;;
7573;SDS011;3828;48.922;9.116;2022-09-09T13:08:02;3.20;;;0.83;;
7573;SDS011;3828;48.922;9.116;2022-09-09T13:10:31;2.53;;;0.60;;
7573;SDS011;3828;48.922;9.116;2022-09-09T13:13:01;0.83;;;0.50;;
7573;SDS011;3828;48.922;9.116;2022-09-09T13:15:31;1.30;;;0.57;;
7573;SDS011;3828;48.922;9.116;2022-09-09T13:18:14;0.60;;;0.40;;
7573;SDS011;3828;48.922;9.116;2022-09-09T13:20:45;0.83;;;0.50;;
7573;SDS011;3828;48.922;9.116;2022-09-09T13:26:02;1.10;;;0.70;;
7573;SDS011;3828;48.922;9.116;2022-09-09T13:28:31;0.60;;;0.57;;
7573;SDS011;3828;48.922;9.116;2022-09-09T13:30:58;1.43;;;0.83;;
7573;SDS011;3828;48.922;9.116;2022-09-09T13:33:31;0.70;;;0.70;;
7573;SDS011;3828;48.922;9.116;2022-09-09T13:36:00;1.97;;;0.40;;
7573;SDS011;3828;48.922;9.116;2022-09-09T13:38:31;0.60;;;0.60;;
7573;SDS011;3828;48.922;9.116;2022-09-09T13:41:00;2.00;;;0.77;;
7573;SDS011;3828;48.922;9.116;2022-09-09T13:43:29;2.33;;;0.83;;
7573;SDS011;3828;48.922;9.116;2022-09-09T13:46:00;2.27;;;0.83;;
7573;SDS011;3828;48.922;9.116;2022-09-09T13:48:28;0.57;;;0.40;;
7573;SDS011;3828;48.922;9.116;2022-09-09T13:50:59;0.77;;;0.77;;
7573;SDS011;3828;48.922;9.116;2022-09-09T13:53:28;0.90;;;0.70;;
7573;SDS011;3828;48.922;9.116;2022-09-09T13:55:55;0.80;;;0.80;;
7573;SDS011;3828;48.922;9.116;2022-09-09T13:58:23;0.57;;;0.50;;
7573;SDS011;3828;48.922;9.116;2022-09-09T14:00:51;2.63;;;0.80;;
7573;SDS011;3828;48.922;9.116;2022-09-09T14:03:18;2.37;;;0.67;;
7573;SDS011;3828;48.922;9.116;2022-09-09T14:05:45;0.87;;;0.60;;
7573;SDS011;3828;48.922;9.116;2022-09-09T14:08:17;2.97;;;0.70;;
7573;SDS011;3828;48.922;9.116;2022-09-09T14:10:48;1.10;;;0.83;;
7573;SDS011;3828;48.922;9.116;2022-09-09T14:13:15;1.00;;;0.50;;
7573;SDS011;3828;48.922;9.116;2022-09-09T14:15:42;0.80;;;0.63;;
7573;SDS011;3828;48.922;9.116;2022-09-09T14:18:09;0.77;;;0.73;;
7573;SDS011;3828;48.922;9.116;2022-09-09T14:20:39;1.93;;;1.00;;
7573;SDS011;3828;48.922;9.116;2022-09-09T14:23:08;1.17;;;0.73;;
7573;SDS011;3828;48.922;9.116;2022-09-09T14:25:40;0.40;;;0.40;;
7573;SDS011;3828;48.922;9.116;2022-09-09T14:28:09;0.77;;;0.57;;
7573;SDS011;3828;48.922;9.116;2022-09-09T14:30:37;2.07;;;0.77;;
7573;SDS011;3828;48.922;9.116;2022-09-09T14:33:04;1.37;;;0.70;;
7573;SDS011;3828;48.922;9.116;2022-09-09T14:35:31;0.77;;;0.70;;
7573;SDS011;3828;48.922;9.116;2022-09-09T14:38:02;0.60;;;0.40;;
7573;SDS011;3828;48.922;9.116;2022-09-09T14:40:29;0.57;;;0.57;;
7573;SDS011;3828;48.922;9.116;2022-09-09T14:42:57;1.13;;;0.50;;
7573;SDS011;3828;48.922;9.116;2022-09-09T14:45:24;1.07;;;0.67;;
7573;SDS011;3828;48.922;9.116;2022-09-09T14:47:51;1.67;;;0.90;;
7573;SDS011;3828;48.922;9.116;2022-09-09T14:50:19;2.03;;;0.70;;
7573;SDS011;3828;48.922;9.116;2022-09-09T14:52:54;0.70;;;0.70;;
7573;SDS011;3828;48.922;9.116;2022-09-09T14:55:21;1.33;;;0.70;;
7573;SDS011;3828;48.922;9.116;2022-09-09T14:57:48;1.20;;;0.73;;
7573;SDS011;3828;48.922;9.116;2022-09-09T15:00:16;2.23;;;0.87;;
7573;SDS011;3828;48.922;9.116;2022-09-09T15:02:43;1.07;;;0.97;;
7573;SDS011;3828;48.922;9.116;2022-09-09T15:05:10;0.73;;;0.53;;
7573;SDS011;3828;48.922;9.116;2022-09-09T15:07:37;3.00;;;0.90;;
7573;SDS011;3828;48.922;9.116;2022-09-09T15:10:04;2.23;;;1.10;;
7573;SDS011;3828;48.922;9.116;2022-09-09T15:12:31;1.87;;;0.80;;
7573;SDS011;3828;48.922;9.116;2022-09-09T15:15:00;1.33;;;0.63;;
7573;SDS011;3828;48.922;9.116;2022-09-09T15:17:28;0.83;;;0.70;;
7573;SDS011;3828;48.922;9.116;2022-09-09T15:19:55;2.77;;;0.73;;
7573;SDS011;3828;48.922;9.116;2022-09-09T15:22:22;1.20;;;0.93;;
7573;SDS011;3828;48.922;9.116;2022-09-09T15:24:49;7.17;;;0.90;;
7573;SDS011;3828;48.922;9.116;2022-09-09T15:27:16;1.17;;;0.70;;
7573;SDS011;3828;48.922;9.116;2022-09-09T15:29:43;0.50;;;0.50;;
7573;SDS011;3828;48.922;9.116;2022-09-09T15:32:11;0.53;;;0.50;;
7573;SDS011;3828;48.922;9.116;2022-09-09T15:34:39;0.93;;;0.60;;
7573;SDS011;3828;48.922;9.116;2022-09-09T15:37:09;1.60;;;0.90;;
7573;SDS011;3828;48.922;9.116;2022-09-09T15:39:38;0.80;;;0.60;;
7573;SDS011;3828;48.922;9.116;2022-09-09T15:42:05;1.10;;;0.70;;
7573;SDS011;3828;48.922;9.116;2022-09-09T15:44:37;0.50;;;0.50;;
7573;SDS011;3828;48.922;9.116;2022-09-09T15:47:05;1.70;;;0.50;;
7573;SDS011;3828;48.922;9.116;2022-09-09T15:49:32;1.40;;;0.63;;
7573;SDS011;3828;48.922;9.116;2022-09-09T15:52:03;1.40;;;0.60;;
7573;SDS011;3828;48.922;9.116;2022-09-09T15:54:36;1.33;;;0.50;;
7573;SDS011;3828;48.922;9.116;2022-09-09T15:57:04;1.73;;;0.90;;
7573;SDS011;3828;48.922;9.116;2022-09-09T15:59:32;2.27;;;0.77;;
7573;SDS011;3828;48.922;9.116;2022-09-09T16:01:59;1.47;;;0.60;;